Time;durP1;ratioP1;P1;durP2;ratioP2;P2;SDS_P1;SDS_P2;PMS_P1;PMS_P2;Temp;Humidity;BMP_temperature;BMP_pressure;BME280_temperature;BME280_humidity;BME280_pressure;Samples;Min_cycle;Max_cycle;Signal;HPM_P1;HPM_P2
2022/10/17 00:02:02;;;;;;;12.27;9.00;;;;;;;;;;5040023;28;20429;-83
2022/10/17 00:04:29;;;;;;;13.35;9.60;;;;;;;;;;5045428;28;20478;-84
2022/10/17 00:06:55;;;;;;;15.02;9.50;;;;;;;;;;5061192;28;20433;-82
2022/10/17 00:09:21;;;;;;;14.23;9.48;;;;;;;;;;5058705;28;20411;-82
2022/10/17 00:11:49;;;;;;;13.85;9.00;;;;;;;;;;5024374;28;20476;-82
2022/10/17 00:14:16;;;;;;;14.80;9.50;;;;;;;;;;5024901;28;20408;-85
2022/10/17 00:16:42;;;;;;;15.57;8.80;;;;;;;;;;5027233;28;20436;-83
2022/10/17 00:19:08;;;;;;;13.00;8.32;;;;;;;;;;5042249;28;20419;-82
2022/10/17 00:21:35;;;;;;;13.05;8.00;;;;;;;;;;5042915;28;20426;-85
2022/10/17 00:24:01;;;;;;;9.45;7.75;;;;;;;;;;5042199;28;20410;-84
2022/10/17 00:26:28;;;;;;;11.02;8.10;;;;;;;;;;5023428;28;20421;-83
2022/10/17 00:28:57;;;;;;;16.08;8.55;;;;;;;;;;5042182;28;20895;-85
2022/10/17 00:31:24;;;;;;;18.98;8.40;;;;;;;;;;5042466;28;20425;-84
2022/10/17 00:33:51;;;;;;;14.27;8.23;;;;;;;;;;5042605;28;20450;-83
2022/10/17 00:36:19;;;;;;;10.60;7.90;;;;;;;;;;5024713;28;20429;-83
2022/10/17 00:38:46;;;;;;;12.25;7.93;;;;;;;;;;5041780;28;20433;-84
2022/10/17 00:41:15;;;;;;;10.73;6.93;;;;;;;;;;5037012;28;20955;-81
2022/10/17 00:43:56;;;;;;;11.23;7.20;;;;;;;;;;5040913;28;20793;-82
2022/10/17 00:46:25;;;;;;;10.13;7.20;;;;;;;;;;5043943;28;20423;-84
2022/10/17 00:48:53;;;;;;;10.20;7.15;;;;;;;;;;5039822;28;20801;-84
2022/10/17 00:51:20;;;;;;;10.32;7.40;;;;;;;;;;5039216;28;20436;-83
2022/10/17 00:53:47;;;;;;;10.50;7.20;;;;;;;;;;5040884;28;20436;-84
2022/10/17 00:56:13;;;;;;;9.05;7.10;;;;;;;;;;5038508;28;21053;-83
2022/10/17 00:58:40;;;;;;;12.50;7.50;;;;;;;;;;5042705;28;20434;-83
2022/10/17 01:01:07;;;;;;;9.80;6.53;;;;;;;;;;5041591;28;20424;-83
2022/10/17 01:03:34;;;;;;;9.23;6.80;;;;;;;;;;5043645;28;20420;-83
2022/10/17 01:06:01;;;;;;;12.00;6.40;;;;;;;;;;5045992;28;20437;-83
2022/10/17 01:08:27;;;;;;;12.65;6.63;;;;;;;;;;5029465;28;20437;-83
2022/10/17 01:10:58;;;;;;;9.57;6.50;;;;;;;;;;5047390;28;20935;-84
2022/10/17 01:13:27;;;;;;;9.65;6.25;;;;;;;;;;5030765;28;20799;-83
2022/10/17 01:15:59;;;;;;;10.23;6.20;;;;;;;;;;5049413;28;20422;-84
2022/10/17 01:18:32;;;;;;;8.00;6.67;;;;;;;;;;5045538;28;20415;-83
2022/10/17 01:21:16;;;;;;;11.55;6.72;;;;;;;;;;5048121;28;20413;-82
2022/10/17 01:23:54;;;;;;;8.27;7.00;;;;;;;;;;5027873;28;20420;-83
2022/10/17 01:26:25;;;;;;;17.50;7.40;;;;;;;;;;5047205;28;20935;-83
2022/10/17 01:29:06;;;;;;;10.82;6.60;;;;;;;;;;5043538;28;20830;-83
2022/10/17 01:31:37;;;;;;;15.77;7.60;;;;;;;;;;5028447;28;20434;-82
2022/10/17 01:34:06;;;;;;;11.77;7.10;;;;;;;;;;5046713;28;20429;-84
2022/10/17 01:36:37;;;;;;;9.85;6.40;;;;;;;;;;5047212;28;20429;-83
2022/10/17 01:39:10;;;;;;;9.20;6.65;;;;;;;;;;5025870;28;20432;-84
2022/10/17 01:41:40;;;;;;;10.27;6.47;;;;;;;;;;5047721;28;20430;-85
2022/10/17 01:44:10;;;;;;;10.18;6.00;;;;;;;;;;5047569;28;20446;-84
2022/10/17 01:46:38;;;;;;;11.68;6.85;;;;;;;;;;5031768;28;20443;-84
2022/10/17 01:49:06;;;;;;;10.55;6.80;;;;;;;;;;5047186;28;20502;-84
2022/10/17 01:51:35;;;;;;;10.48;6.40;;;;;;;;;;5046250;28;20424;-84
2022/10/17 01:54:05;;;;;;;8.60;7.00;;;;;;;;;;5045934;28;20425;-84
2022/10/17 01:56:32;;;;;;;7.10;5.95;;;;;;;;;;5044679;28;20442;-84
2022/10/17 01:59:01;;;;;;;12.17;6.83;;;;;;;;;;5046451;28;20436;-84
2022/10/17 02:01:29;;;;;;;9.48;6.38;;;;;;;;;;5047414;28;20477;-85
2022/10/17 02:03:59;;;;;;;7.90;6.20;;;;;;;;;;5044557;28;20431;-84
2022/10/17 02:06:25;;;;;;;12.30;6.30;;;;;;;;;;5047189;28;20875;-84
2022/10/17 02:08:52;;;;;;;7.50;5.70;;;;;;;;;;5045227;28;20419;-85
2022/10/17 02:11:19;;;;;;;10.10;6.05;;;;;;;;;;5044644;28;20429;-85
2022/10/17 02:13:53;;;;;;;10.07;6.50;;;;;;;;;;5050398;28;20439;-84
2022/10/17 02:16:26;;;;;;;9.17;6.20;;;;;;;;;;5043329;28;20435;-83
2022/10/17 02:19:00;;;;;;;12.50;6.63;;;;;;;;;;5041920;28;21099;-84
2022/10/17 02:21:33;;;;;;;9.13;5.60;;;;;;;;;;5042078;28;21248;-85
2022/10/17 02:24:04;;;;;;;6.85;5.60;;;;;;;;;;5041784;28;20426;-83
2022/10/17 02:26:34;;;;;;;9.40;6.47;;;;;;;;;;5041196;28;20421;-84
2022/10/17 02:29:05;;;;;;;11.73;6.22;;;;;;;;;;5045085;28;20437;-84
2022/10/17 02:31:34;;;;;;;9.10;6.07;;;;;;;;;;5038792;28;20431;-84
2022/10/17 02:34:02;;;;;;;8.98;6.20;;;;;;;;;;5042845;28;20436;-85
2022/10/17 02:36:32;;;;;;;7.00;6.00;;;;;;;;;;5046400;28;20960;-84
2022/10/17 02:38:59;;;;;;;7.68;6.03;;;;;;;;;;5024197;28;20483;-85
2022/10/17 02:41:25;;;;;;;8.38;6.53;;;;;;;;;;5024611;28;20425;-84
2022/10/17 02:43:56;;;;;;;6.70;6.10;;;;;;;;;;5042706;28;20431;-84
2022/10/17 02:46:24;;;;;;;10.57;6.57;;;;;;;;;;5045856;28;20431;-84
2022/10/17 02:48:52;;;;;;;8.67;6.17;;;;;;;;;;5041712;28;20923;-84
2022/10/17 02:51:23;;;;;;;8.13;6.80;;;;;;;;;;5042364;28;20425;-85
2022/10/17 02:53:55;;;;;;;7.30;6.27;;;;;;;;;;5024905;28;20478;-83
2022/10/17 02:56:21;;;;;;;7.38;6.32;;;;;;;;;;5024661;28;20449;-84
2022/10/17 02:58:50;;;;;;;10.80;6.80;;;;;;;;;;5041104;28;20507;-85
2022/10/17 03:01:17;;;;;;;9.40;6.80;;;;;;;;;;5043916;28;20417;-84
2022/10/17 03:03:43;;;;;;;8.18;6.07;;;;;;;;;;5043732;28;20425;-85
2022/10/17 03:06:11;;;;;;;7.03;6.32;;;;;;;;;;5042593;28;20429;-83
2022/10/17 03:08:37;;;;;;;10.43;6.53;;;;;;;;;;5042969;28;20947;-83
2022/10/17 03:11:05;;;;;;;7.70;6.60;;;;;;;;;;5043725;28;20426;-85
2022/10/17 03:13:32;;;;;;;6.72;6.13;;;;;;;;;;5040193;28;20816;-84
2022/10/17 03:15:58;;;;;;;7.68;5.70;;;;;;;;;;5024226;28;20419;-84
2022/10/17 03:18:25;;;;;;;13.13;6.88;;;;;;;;;;5041422;28;20948;-85
2022/10/17 03:20:51;;;;;;;9.68;6.65;;;;;;;;;;5041419;28;20433;-84
2022/10/17 03:23:17;;;;;;;8.93;6.32;;;;;;;;;;5045354;28;20431;-85
2022/10/17 03:25:44;;;;;;;7.32;6.63;;;;;;;;;;5038644;28;20957;-84
2022/10/17 03:28:12;;;;;;;7.97;7.18;;;;;;;;;;5042167;28;20437;-84
2022/10/17 03:30:40;;;;;;;10.40;7.27;;;;;;;;;;5036247;28;20487;-84
2022/10/17 03:33:06;;;;;;;9.10;6.70;;;;;;;;;;5045589;28;20537;-83
2022/10/17 03:35:32;;;;;;;8.98;7.00;;;;;;;;;;5057582;28;20425;-84
2022/10/17 03:37:59;;;;;;;10.07;7.30;;;;;;;;;;5063043;28;20434;-83
2022/10/17 03:40:25;;;;;;;8.80;7.40;;;;;;;;;;5063132;28;20430;-84
2022/10/17 03:42:52;;;;;;;8.10;7.30;;;;;;;;;;5062847;28;20436;-84
2022/10/17 03:45:20;;;;;;;9.30;7.60;;;;;;;;;;5049390;28;20422;-85
2022/10/17 03:47:46;;;;;;;8.63;7.60;;;;;;;;;;5042240;28;20415;-84
2022/10/17 03:50:14;;;;;;;15.07;8.05;;;;;;;;;;5041177;28;20426;-85
2022/10/17 03:52:41;;;;;;;9.20;8.07;;;;;;;;;;5041930;28;20417;-84
2022/10/17 03:55:08;;;;;;;9.98;8.50;;;;;;;;;;5038888;28;20433;-85
2022/10/17 03:57:35;;;;;;;11.38;8.38;;;;;;;;;;5040411;28;20817;-85
2022/10/17 04:00:01;;;;;;;8.25;7.45;;;;;;;;;;5029694;28;20415;-84
2022/10/17 04:02:29;;;;;;;9.57;7.70;;;;;;;;;;5042019;28;20429;-84
2022/10/17 04:04:55;;;;;;;12.50;8.55;;;;;;;;;;5047474;28;20423;-84
2022/10/17 04:07:21;;;;;;;13.50;9.00;;;;;;;;;;5059333;28;20448;-85
2022/10/17 04:09:48;;;;;;;11.05;9.65;;;;;;;;;;5037215;28;20434;-84
2022/10/17 04:12:15;;;;;;;9.30;8.27;;;;;;;;;;5042784;28;20465;-85
2022/10/17 04:14:41;;;;;;;9.95;7.80;;;;;;;;;;5043238;28;20430;-84
2022/10/17 04:17:07;;;;;;;10.80;8.80;;;;;;;;;;5041177;28;20435;-84
2022/10/17 04:19:35;;;;;;;12.20;9.23;;;;;;;;;;5039462;28;20786;-85
2022/10/17 04:22:02;;;;;;;9.60;8.60;;;;;;;;;;5042274;28;20431;-85
2022/10/17 04:24:29;;;;;;;10.70;8.48;;;;;;;;;;5039723;28;20470;-83
2022/10/17 04:26:55;;;;;;;13.75;9.20;;;;;;;;;;5043731;28;20444;-83
2022/10/17 04:29:22;;;;;;;12.10;8.88;;;;;;;;;;5037976;28;20419;-84
2022/10/17 04:31:48;;;;;;;12.30;9.30;;;;;;;;;;5041804;28;20437;-82
2022/10/17 04:34:15;;;;;;;13.05;9.20;;;;;;;;;;5044261;28;20819;-83
2022/10/17 04:36:43;;;;;;;11.45;8.93;;;;;;;;;;5038550;28;20461;-83
2022/10/17 04:39:09;;;;;;;13.88;8.98;;;;;;;;;;5039401;28;20414;-84
2022/10/17 04:41:35;;;;;;;13.52;9.80;;;;;;;;;;5041313;28;20425;-83
2022/10/17 04:44:02;;;;;;;10.43;9.30;;;;;;;;;;5041861;28;20815;-83
2022/10/17 04:46:29;;;;;;;13.17;9.37;;;;;;;;;;5061426;28;20508;-83
2022/10/17 04:48:55;;;;;;;12.55;9.75;;;;;;;;;;5063949;28;20427;-84
2022/10/17 04:51:21;;;;;;;11.73;9.57;;;;;;;;;;5061857;28;20441;-84
2022/10/17 04:53:49;;;;;;;14.90;10.05;;;;;;;;;;5062064;28;20429;-84
2022/10/17 04:56:17;;;;;;;11.37;10.17;;;;;;;;;;5060492;28;20415;-84
2022/10/17 04:58:43;;;;;;;12.20;9.43;;;;;;;;;;5062492;28;20440;-84
2022/10/17 05:01:11;;;;;;;12.35;9.60;;;;;;;;;;5063202;28;20770;-83
2022/10/17 05:03:37;;;;;;;13.70;11.20;;;;;;;;;;5060126;28;20446;-82
2022/10/17 05:06:05;;;;;;;16.40;11.25;;;;;;;;;;5061295;28;20415;-83
2022/10/17 05:08:31;;;;;;;13.43;10.35;;;;;;;;;;5059257;28;20427;-84
2022/10/17 05:10:59;;;;;;;15.27;11.65;;;;;;;;;;5043395;28;20844;-83
2022/10/17 05:13:26;;;;;;;13.35;10.35;;;;;;;;;;5041931;28;20423;-83
2022/10/17 05:15:52;;;;;;;14.23;10.52;;;;;;;;;;5043598;28;20423;-83
2022/10/17 05:18:20;;;;;;;14.15;11.27;;;;;;;;;;5058917;28;20436;-82
2022/10/17 05:20:46;;;;;;;12.32;11.00;;;;;;;;;;5044599;28;20917;-83
2022/10/17 05:23:12;;;;;;;16.45;13.18;;;;;;;;;;5059233;28;20448;-83
2022/10/17 05:25:39;;;;;;;13.00;11.30;;;;;;;;;;5044264;28;20427;-83
2022/10/17 05:28:07;;;;;;;16.77;11.80;;;;;;;;;;5044521;28;20431;-82
2022/10/17 05:30:35;;;;;;;16.65;13.07;;;;;;;;;;5058608;28;20430;-84
2022/10/17 05:33:02;;;;;;;13.55;11.48;;;;;;;;;;5064810;28;20437;-82
2022/10/17 05:35:31;;;;;;;19.80;13.13;;;;;;;;;;5043663;28;20425;-83
2022/10/17 05:37:58;;;;;;;19.43;13.50;;;;;;;;;;5060269;28;20434;-84
2022/10/17 05:40:25;;;;;;;16.52;12.70;;;;;;;;;;5060191;28;20792;-84
2022/10/17 05:42:51;;;;;;;16.03;12.43;;;;;;;;;;5061908;28;20431;-86
2022/10/17 05:45:19;;;;;;;19.77;12.75;;;;;;;;;;5061087;28;20834;-81
2022/10/17 05:47:46;;;;;;;19.55;13.32;;;;;;;;;;5061220;28;20424;-84
2022/10/17 05:50:12;;;;;;;17.80;12.88;;;;;;;;;;5042468;28;20437;-82
2022/10/17 05:52:38;;;;;;;17.17;13.38;;;;;;;;;;5063514;28;20806;-82
2022/10/17 05:55:06;;;;;;;16.60;12.60;;;;;;;;;;5046377;28;20423;-83
2022/10/17 05:57:32;;;;;;;16.50;13.00;;;;;;;;;;5063312;28;20427;-83
2022/10/17 05:59:59;;;;;;;14.75;12.20;;;;;;;;;;5064689;28;20481;-83
2022/10/17 06:02:27;;;;;;;18.53;13.73;;;;;;;;;;5042910;28;20456;-84
2022/10/17 06:04:53;;;;;;;17.40;13.85;;;;;;;;;;5064793;28;20433;-83
2022/10/17 06:07:20;;;;;;;17.80;13.75;;;;;;;;;;5048082;28;20427;-84
2022/10/17 06:09:46;;;;;;;19.25;13.38;;;;;;;;;;5063825;28;20415;-83
2022/10/17 06:12:13;;;;;;;16.00;12.20;;;;;;;;;;5064193;28;20429;-84
2022/10/17 06:14:40;;;;;;;16.45;13.00;;;;;;;;;;5047209;28;20443;-82
2022/10/17 06:17:07;;;;;;;19.33;12.55;;;;;;;;;;5065517;28;20440;-84
2022/10/17 06:19:36;;;;;;;17.00;12.98;;;;;;;;;;5046358;28;20464;-83
2022/10/17 06:22:02;;;;;;;14.30;11.80;;;;;;;;;;5062543;28;20441;-83
2022/10/17 06:24:28;;;;;;;19.05;12.35;;;;;;;;;;5065064;28;20413;-84
2022/10/17 06:26:55;;;;;;;16.88;12.88;;;;;;;;;;5062644;28;20447;-82
2022/10/17 06:29:22;;;;;;;19.33;12.73;;;;;;;;;;5060688;28;22283;-84
2022/10/17 06:31:48;;;;;;;17.42;12.60;;;;;;;;;;5065795;28;20939;-84
2022/10/17 06:34:15;;;;;;;17.60;12.87;;;;;;;;;;5046151;28;20483;-83
2022/10/17 06:36:43;;;;;;;14.50;13.00;;;;;;;;;;5044897;28;21094;-83
2022/10/17 06:39:09;;;;;;;17.75;12.93;;;;;;;;;;5059947;28;20412;-84
2022/10/17 06:41:36;;;;;;;14.67;12.60;;;;;;;;;;5063586;28;20456;-83
2022/10/17 06:44:08;;;;;;;14.20;12.02;;;;;;;;;;5060956;28;20429;-84
2022/10/17 06:46:34;;;;;;;14.57;11.32;;;;;;;;;;5062266;28;20413;-82
2022/10/17 06:49:01;;;;;;;14.60;11.00;;;;;;;;;;5061520;28;20432;-84
2022/10/17 06:51:29;;;;;;;14.75;11.05;;;;;;;;;;5063277;28;20500;-83
2022/10/17 06:53:58;;;;;;;11.45;10.25;;;;;;;;;;5065809;28;20434;-82
2022/10/17 06:56:24;;;;;;;10.77;9.48;;;;;;;;;;5064538;28;20436;-83
2022/10/17 06:58:52;;;;;;;11.13;9.88;;;;;;;;;;5043500;28;21518;-83
2022/10/17 07:01:19;;;;;;;12.52;10.30;;;;;;;;;;5045219;28;20510;-83
2022/10/17 07:03:47;;;;;;;13.07;10.70;;;;;;;;;;5061734;28;20442;-84
2022/10/17 07:06:14;;;;;;;11.23;9.83;;;;;;;;;;5063814;28;20422;-84
2022/10/17 07:08:42;;;;;;;17.98;10.77;;;;;;;;;;5060763;28;20437;-83
2022/10/17 07:11:11;;;;;;;11.65;10.45;;;;;;;;;;5027815;28;20452;-83
2022/10/17 07:13:37;;;;;;;12.00;10.63;;;;;;;;;;5062881;28;20914;-83
2022/10/17 07:16:05;;;;;;;11.40;10.20;;;;;;;;;;5064665;28;20429;-82
2022/10/17 07:18:31;;;;;;;11.30;9.77;;;;;;;;;;5061464;28;21066;-82
2022/10/17 07:20:58;;;;;;;15.70;10.00;;;;;;;;;;5061956;28;20429;-82
2022/10/17 07:23:24;;;;;;;11.02;9.40;;;;;;;;;;5062477;28;20411;-82
2022/10/17 07:25:51;;;;;;;10.88;9.77;;;;;;;;;;5060636;28;20416;-82
2022/10/17 07:28:19;;;;;;;12.32;9.63;;;;;;;;;;5059959;28;20420;-81
2022/10/17 07:30:45;;;;;;;10.90;9.60;;;;;;;;;;5062353;28;20980;-82
2022/10/17 07:33:14;;;;;;;10.93;9.52;;;;;;;;;;5059372;28;20507;-82
2022/10/17 07:35:40;;;;;;;12.20;9.82;;;;;;;;;;5058879;28;20955;-82
2022/10/17 07:38:07;;;;;;;13.00;9.00;;;;;;;;;;5064806;28;20432;-82
2022/10/17 07:40:33;;;;;;;11.10;9.73;;;;;;;;;;5061746;28;20425;-81
2022/10/17 07:43:00;;;;;;;9.65;8.40;;;;;;;;;;5062819;28;20432;-81
2022/10/17 07:45:27;;;;;;;14.82;9.75;;;;;;;;;;5061021;28;20417;-82
2022/10/17 07:47:55;;;;;;;10.63;9.53;;;;;;;;;;5061076;28;20417;-81
2022/10/17 07:50:21;;;;;;;12.07;9.80;;;;;;;;;;5046032;28;20987;-84
2022/10/17 07:52:48;;;;;;;11.13;9.93;;;;;;;;;;5062885;28;20411;-83
2022/10/17 07:55:14;;;;;;;11.63;10.23;;;;;;;;;;5062856;28;20419;-82
2022/10/17 07:57:41;;;;;;;11.82;9.45;;;;;;;;;;5061688;28;20431;-83
2022/10/17 08:00:08;;;;;;;12.13;9.18;;;;;;;;;;5061340;28;20789;-83
2022/10/17 08:02:36;;;;;;;10.25;9.20;;;;;;;;;;5062444;28;20418;-83
2022/10/17 08:05:02;;;;;;;11.90;8.70;;;;;;;;;;5062747;28;20432;-81
2022/10/17 08:07:30;;;;;;;10.38;9.27;;;;;;;;;;5062431;28;20408;-83
2022/10/17 08:09:56;;;;;;;10.73;9.50;;;;;;;;;;5062372;28;20424;-82
2022/10/17 08:12:24;;;;;;;9.75;8.48;;;;;;;;;;5063354;28;20442;-83
2022/10/17 08:14:51;;;;;;;10.85;9.18;;;;;;;;;;5043677;28;20505;-82
2022/10/17 08:17:17;;;;;;;9.55;8.32;;;;;;;;;;5061203;28;20433;-83
2022/10/17 08:19:45;;;;;;;10.85;8.13;;;;;;;;;;5044741;28;20466;-83
2022/10/17 08:22:11;;;;;;;10.70;8.32;;;;;;;;;;5047345;28;20411;-82
2022/10/17 08:24:38;;;;;;;9.17;8.27;;;;;;;;;;5061548;28;20415;-83
2022/10/17 08:27:10;;;;;;;9.48;8.45;;;;;;;;;;5061112;28;20412;-83
2022/10/17 08:29:36;;;;;;;9.70;7.93;;;;;;;;;;5042923;28;20429;-83
2022/10/17 08:32:03;;;;;;;10.43;8.20;;;;;;;;;;5065655;28;20793;-82
2022/10/17 08:34:29;;;;;;;11.57;8.20;;;;;;;;;;5061758;28;20438;-83
2022/10/17 08:36:57;;;;;;;10.80;8.07;;;;;;;;;;5061323;28;20436;-82
2022/10/17 08:39:23;;;;;;;10.90;8.20;;;;;;;;;;5060506;28;20412;-83
2022/10/17 08:41:55;;;;;;;10.55;8.27;;;;;;;;;;5061317;28;20424;-83
2022/10/17 08:44:27;;;;;;;14.30;8.50;;;;;;;;;;5059686;28;20417;-83
2022/10/17 08:46:57;;;;;;;12.52;8.40;;;;;;;;;;5055934;28;21175;-83
2022/10/17 08:49:36;;;;;;;7.95;7.15;;;;;;;;;;5043168;28;20510;-82
2022/10/17 08:52:05;;;;;;;8.60;7.57;;;;;;;;;;5065423;28;20961;-82
2022/10/17 08:54:37;;;;;;;8.50;7.30;;;;;;;;;;5061083;28;20428;-83
2022/10/17 08:57:04;;;;;;;7.70;7.00;;;;;;;;;;5045522;28;20458;-82
2022/10/17 08:59:32;;;;;;;9.20;7.50;;;;;;;;;;5058426;28;20427;-83
2022/10/17 09:02:01;;;;;;;12.13;6.60;;;;;;;;;;5059048;28;20424;-82
2022/10/17 09:04:42;;;;;;;7.82;7.03;;;;;;;;;;5060382;28;20420;-83
2022/10/17 09:07:13;;;;;;;9.50;7.00;;;;;;;;;;5039286;28;20516;-82
2022/10/17 09:09:42;;;;;;;9.98;6.55;;;;;;;;;;5058648;28;20462;-83
2022/10/17 09:12:14;;;;;;;8.35;7.10;;;;;;;;;;5064229;28;20428;-82
2022/10/17 09:15:02;;;;;;;8.27;6.80;;;;;;;;;;5062241;28;20424;-83
2022/10/17 09:17:34;;;;;;;8.30;6.80;;;;;;;;;;5029522;28;20505;-82
2022/10/17 09:20:03;;;;;;;8.55;6.88;;;;;;;;;;5059764;28;20957;-82
2022/10/17 09:22:34;;;;;;;8.50;6.60;;;;;;;;;;5062225;28;20897;-83
2022/10/17 09:25:02;;;;;;;10.65;6.53;;;;;;;;;;5059586;28;20420;-82
2022/10/17 09:27:33;;;;;;;7.80;7.00;;;;;;;;;;5061072;28;21559;-82
2022/10/17 09:30:03;;;;;;;9.53;6.87;;;;;;;;;;5045595;28;20417;-83
2022/10/17 09:32:29;;;;;;;9.35;7.47;;;;;;;;;;5049233;28;20415;-83
2022/10/17 09:34:57;;;;;;;10.48;7.30;;;;;;;;;;5065766;28;20412;-83
2022/10/17 09:37:26;;;;;;;9.05;7.00;;;;;;;;;;5066399;28;20930;-83
2022/10/17 09:39:54;;;;;;;8.40;6.65;;;;;;;;;;5066131;28;20503;-83
2022/10/17 09:42:22;;;;;;;8.18;6.40;;;;;;;;;;5065237;28;20419;-82
2022/10/17 09:44:51;;;;;;;8.77;6.50;;;;;;;;;;5061028;28;20424;-83
2022/10/17 09:47:24;;;;;;;7.45;6.43;;;;;;;;;;5065615;28;20777;-82
2022/10/17 09:49:50;;;;;;;8.00;6.50;;;;;;;;;;5064232;28;20420;-82
2022/10/17 09:52:18;;;;;;;9.93;6.67;;;;;;;;;;5064594;28;20423;-82
2022/10/17 09:54:46;;;;;;;9.23;6.32;;;;;;;;;;5063847;28;20832;-83
2022/10/17 09:57:15;;;;;;;9.30;6.77;;;;;;;;;;5065341;28;20425;-83
2022/10/17 09:59:44;;;;;;;9.35;6.57;;;;;;;;;;5063366;28;20978;-82
2022/10/17 10:02:15;;;;;;;10.02;7.30;;;;;;;;;;5064630;28;20503;-83
2022/10/17 10:04:51;;;;;;;11.40;6.15;;;;;;;;;;5066603;28;20430;-83
2022/10/17 10:07:19;;;;;;;8.90;6.30;;;;;;;;;;5064222;28;20436;-83
2022/10/17 10:09:46;;;;;;;8.20;6.60;;;;;;;;;;5064059;28;20429;-83
2022/10/17 10:12:18;;;;;;;9.30;6.73;;;;;;;;;;5065896;28;20884;-82
2022/10/17 10:14:45;;;;;;;8.60;7.10;;;;;;;;;;5065513;28;20849;-83
2022/10/17 10:17:27;;;;;;;9.25;6.60;;;;;;;;;;5063957;28;20483;-81
2022/10/17 10:19:54;;;;;;;10.30;7.88;;;;;;;;;;5065055;28;20416;-82
2022/10/17 10:22:22;;;;;;;8.88;6.97;;;;;;;;;;5065215;28;20797;-83
2022/10/17 10:25:06;;;;;;;9.10;7.38;;;;;;;;;;5063898;28;20971;-82
2022/10/17 10:27:34;;;;;;;9.57;7.25;;;;;;;;;;5063801;28;20412;-81
2022/10/17 10:30:01;;;;;;;10.10;6.45;;;;;;;;;;5065465;28;20419;-82
2022/10/17 10:32:29;;;;;;;9.85;6.78;;;;;;;;;;5065410;28;20943;-83
2022/10/17 10:34:56;;;;;;;10.10;7.00;;;;;;;;;;5063398;28;20417;-83
2022/10/17 10:37:24;;;;;;;8.02;7.20;;;;;;;;;;5065996;28;20427;-83
2022/10/17 10:39:52;;;;;;;8.73;7.30;;;;;;;;;;5066426;28;20422;-82
2022/10/17 10:42:22;;;;;;;10.82;7.45;;;;;;;;;;5066900;28;20422;-83
2022/10/17 10:44:50;;;;;;;9.27;7.45;;;;;;;;;;5064984;28;20801;-82
2022/10/17 10:47:21;;;;;;;10.05;7.38;;;;;;;;;;5062404;28;20416;-84
2022/10/17 10:49:50;;;;;;;11.98;7.85;;;;;;;;;;5064247;28;20937;-82
2022/10/17 10:52:21;;;;;;;9.88;7.78;;;;;;;;;;5062405;28;20906;-83
2022/10/17 10:54:53;;;;;;;8.02;6.95;;;;;;;;;;5064295;28;20419;-83
2022/10/17 10:57:21;;;;;;;10.20;8.00;;;;;;;;;;5065115;28;20432;-82
2022/10/17 10:59:54;;;;;;;8.35;7.55;;;;;;;;;;5059988;28;20421;-82
2022/10/17 11:02:25;;;;;;;11.65;8.00;;;;;;;;;;5061630;28;20863;-84
2022/10/17 11:04:55;;;;;;;9.40;7.50;;;;;;;;;;5064120;28;20414;-83
2022/10/17 11:07:26;;;;;;;9.98;8.40;;;;;;;;;;5065263;28;20412;-84
2022/10/17 11:09:55;;;;;;;8.13;7.32;;;;;;;;;;5062381;28;20419;-82
2022/10/17 11:12:24;;;;;;;8.52;7.70;;;;;;;;;;5047868;28;20415;-83
2022/10/17 11:14:53;;;;;;;12.77;7.78;;;;;;;;;;5063364;28;20408;-83
2022/10/17 11:17:25;;;;;;;8.45;7.35;;;;;;;;;;5044683;28;20496;-83
2022/10/17 11:19:56;;;;;;;9.50;7.80;;;;;;;;;;5061840;28;20433;-81
2022/10/17 11:22:27;;;;;;;10.80;8.02;;;;;;;;;;5061871;28;20431;-81
2022/10/17 11:24:58;;;;;;;11.85;8.20;;;;;;;;;;5044025;28;20418;-82
2022/10/17 11:27:25;;;;;;;10.30;8.32;;;;;;;;;;5044382;28;20454;-82
2022/10/17 11:29:52;;;;;;;12.05;8.80;;;;;;;;;;5063738;28;20465;-82
2022/10/17 11:32:20;;;;;;;12.63;8.88;;;;;;;;;;5043114;28;20433;-82
2022/10/17 11:34:50;;;;;;;13.48;9.07;;;;;;;;;;5064404;28;20423;-82
2022/10/17 11:37:18;;;;;;;14.57;8.90;;;;;;;;;;5061879;28;20430;-81
2022/10/17 11:39:52;;;;;;;10.88;9.00;;;;;;;;;;5063391;28;20412;-81
2022/10/17 11:42:23;;;;;;;14.40;9.30;;;;;;;;;;5063281;28;20908;-82
2022/10/17 11:44:52;;;;;;;12.38;9.10;;;;;;;;;;5061828;28;20427;-82
2022/10/17 11:47:26;;;;;;;9.85;8.30;;;;;;;;;;5062403;28;20436;-81
2022/10/17 11:49:57;;;;;;;11.18;9.02;;;;;;;;;;5045915;28;20416;-82
2022/10/17 11:52:28;;;;;;;13.75;9.25;;;;;;;;;;5063943;28;20510;-82
2022/10/17 11:54:56;;;;;;;11.35;9.30;;;;;;;;;;5061289;28;20424;-82
2022/10/17 11:57:43;;;;;;;11.57;9.13;;;;;;;;;;5043545;28;20424;-82
2022/10/17 12:00:20;;;;;;;12.77;10.00;;;;;;;;;;5062041;28;20431;-82
2022/10/17 12:02:50;;;;;;;10.90;9.03;;;;;;;;;;5045564;28;20423;-82
2022/10/17 12:05:23;;;;;;;11.85;8.98;;;;;;;;;;5058632;28;20422;-81
2022/10/17 12:07:52;;;;;;;11.23;9.85;;;;;;;;;;5061287;28;20425;-80
2022/10/17 12:10:25;;;;;;;12.90;10.57;;;;;;;;;;5061227;28;20779;-82
2022/10/17 12:12:51;;;;;;;16.02;11.77;;;;;;;;;;5061138;28;20942;-82
2022/10/17 12:15:28;;;;;;;13.00;11.70;;;;;;;;;;5057963;28;20417;-81
2022/10/17 12:17:55;;;;;;;13.10;11.80;;;;;;;;;;5063295;28;20427;-83
2022/10/17 12:20:39;;;;;;;13.83;12.20;;;;;;;;;;5061322;28;20909;-82
2022/10/17 12:23:19;;;;;;;15.20;13.50;;;;;;;;;;5062058;28;20411;-81
2022/10/17 12:25:49;;;;;;;15.50;13.90;;;;;;;;;;5059272;28;20507;-83
2022/10/17 12:28:16;;;;;;;16.58;14.88;;;;;;;;;;5060937;28;20821;-81
2022/10/17 12:30:53;;;;;;;17.17;14.40;;;;;;;;;;5061830;28;21145;-81
2022/10/17 12:33:22;;;;;;;17.13;14.50;;;;;;;;;;5059329;28;20423;-80
2022/10/17 12:36:10;;;;;;;18.27;15.30;;;;;;;;;;5045803;28;20434;-81
2022/10/17 12:38:38;;;;;;;17.90;16.00;;;;;;;;;;5048928;28;20431;-81
2022/10/17 12:41:05;;;;;;;18.15;16.23;;;;;;;;;;5060333;28;20432;-81
2022/10/17 12:43:35;;;;;;;21.17;18.63;;;;;;;;;;5042767;28;20438;-81
2022/10/17 12:46:02;;;;;;;21.40;17.17;;;;;;;;;;5049469;28;20435;-81
2022/10/17 12:48:47;;;;;;;24.65;17.48;;;;;;;;;;5063095;28;20411;-81
2022/10/17 12:51:16;;;;;;;23.40;17.37;;;;;;;;;;5042919;28;20990;-81
2022/10/17 12:53:48;;;;;;;22.50;17.30;;;;;;;;;;5062008;28;20862;-81
2022/10/17 12:56:16;;;;;;;21.23;17.67;;;;;;;;;;5062472;28;20417;-81
2022/10/17 12:58:43;;;;;;;20.08;17.98;;;;;;;;;;5062158;28;20427;-81
2022/10/17 13:01:13;;;;;;;18.75;16.65;;;;;;;;;;5062585;28;20425;-83
2022/10/17 13:03:42;;;;;;;18.10;16.30;;;;;;;;;;5061200;28;20419;-83
2022/10/17 13:06:15;;;;;;;19.85;17.75;;;;;;;;;;5059665;28;20450;-83
2022/10/17 13:08:45;;;;;;;19.90;17.98;;;;;;;;;;5044948;28;20436;-83
2022/10/17 13:11:14;;;;;;;18.40;16.50;;;;;;;;;;5057081;28;20426;-81
2022/10/17 13:13:42;;;;;;;19.10;17.10;;;;;;;;;;5062535;28;20423;-82
2022/10/17 13:16:08;;;;;;;17.95;16.02;;;;;;;;;;5058077;28;20448;-83
2022/10/17 13:18:35;;;;;;;19.85;15.80;;;;;;;;;;5061793;28;20428;-83
2022/10/17 13:21:02;;;;;;;18.05;16.33;;;;;;;;;;5059911;28;20423;-83
2022/10/17 13:23:32;;;;;;;17.02;15.23;;;;;;;;;;5059376;28;20429;-83
2022/10/17 13:26:12;;;;;;;16.20;14.60;;;;;;;;;;5061567;28;20417;-83
2022/10/17 13:28:39;;;;;;;16.95;15.15;;;;;;;;;;5059022;28;20416;-82
2022/10/17 13:31:06;;;;;;;15.40;13.90;;;;;;;;;;5043149;28;20925;-83
2022/10/17 13:33:34;;;;;;;15.10;13.50;;;;;;;;;;5058299;28;20425;-83
2022/10/17 13:36:01;;;;;;;16.33;13.40;;;;;;;;;;5057806;28;20425;-81
2022/10/17 13:38:28;;;;;;;14.50;13.00;;;;;;;;;;5059340;28;20429;-83
2022/10/17 13:40:55;;;;;;;14.65;13.15;;;;;;;;;;5062830;28;20434;-83
2022/10/17 13:43:24;;;;;;;15.27;13.77;;;;;;;;;;5061018;28;20432;-81
2022/10/17 13:45:51;;;;;;;15.63;14.02;;;;;;;;;;5061537;28;20416;-81
2022/10/17 13:48:19;;;;;;;16.52;14.60;;;;;;;;;;5056774;28;20413;-83
2022/10/17 13:50:49;;;;;;;19.17;14.60;;;;;;;;;;5062713;28;20879;-81
2022/10/17 13:53:20;;;;;;;14.75;13.20;;;;;;;;;;5061596;28;20423;-83
2022/10/17 13:55:53;;;;;;;17.33;13.23;;;;;;;;;;5060320;28;20492;-81
2022/10/17 13:58:20;;;;;;;14.13;12.82;;;;;;;;;;5061558;28;20429;-82
2022/10/17 14:00:49;;;;;;;16.00;13.13;;;;;;;;;;5060140;28;20428;-81
2022/10/17 14:03:16;;;;;;;20.60;13.80;;;;;;;;;;5063206;28;20412;-81
2022/10/17 14:06:05;;;;;;;17.60;13.48;;;;;;;;;;5063162;28;20422;-81
2022/10/17 14:08:33;;;;;;;15.90;12.10;;;;;;;;;;5058469;28;20917;-81
2022/10/17 14:11:00;;;;;;;17.98;12.48;;;;;;;;;;5059746;28;20426;-81
2022/10/17 14:13:27;;;;;;;14.02;11.80;;;;;;;;;;5060588;28;20417;-81
2022/10/17 14:15:56;;;;;;;12.43;11.02;;;;;;;;;;5063329;28;20463;-81
2022/10/17 14:18:24;;;;;;;13.25;10.85;;;;;;;;;;5061951;28;20431;-81
2022/10/17 14:20:51;;;;;;;12.53;10.80;;;;;;;;;;5064667;28;20968;-82
2022/10/17 14:23:32;;;;;;;10.80;9.70;;;;;;;;;;5065369;28;20469;-82
2022/10/17 14:26:06;;;;;;;12.35;10.80;;;;;;;;;;5060369;28;20425;-82
2022/10/17 14:28:33;;;;;;;14.13;10.48;;;;;;;;;;5063392;28;20420;-81
2022/10/17 14:31:12;;;;;;;11.63;10.20;;;;;;;;;;5065751;28;20415;-81
2022/10/17 14:33:43;;;;;;;12.23;9.88;;;;;;;;;;5063776;28;20965;-83
2022/10/17 14:36:09;;;;;;;11.18;9.45;;;;;;;;;;5062274;28;20508;-83
2022/10/17 14:38:36;;;;;;;11.77;9.65;;;;;;;;;;5060280;28;20428;-83